sensor_id;sensor_type;location;lat;lon;timestamp;temperature;humidity
3818;DHT22;1924;48.078;11.516;2023-09-12T04:02:08;19.00;99.90
3818;DHT22;1924;48.078;11.516;2023-09-12T04:04:35;19.00;99.90
3818;DHT22;1924;48.078;11.516;2023-09-12T04:07:01;18.90;99.90
3818;DHT22;1924;48.078;11.516;2023-09-12T04:09:28;18.90;99.90
3818;DHT22;1924;48.078;11.516;2023-09-12T04:11:55;18.80;99.90
3818;DHT22;1924;48.078;11.516;2023-09-12T04:14:22;18.80;99.90
3818;DHT22;1924;48.078;11.516;2023-09-12T04:16:49;18.80;99.90
3818;DHT22;1924;48.078;11.516;2023-09-12T04:19:17;18.80;99.90
3818;DHT22;1924;48.078;11.516;2023-09-12T04:21:43;18.80;99.90
3818;DHT22;1924;48.078;11.516;2023-09-12T04:24:10;18.80;99.90
3818;DHT22;1924;48.078;11.516;2023-09-12T04:26:37;18.80;99.90
3818;DHT22;1924;48.078;11.516;2023-09-12T04:29:04;18.80;99.90
3818;DHT22;1924;48.078;11.516;2023-09-12T04:31:34;18.80;99.90
3818;DHT22;1924;48.078;11.516;2023-09-12T04:34:00;18.70;99.90
3818;DHT22;1924;48.078;11.516;2023-09-12T04:36:28;18.70;99.90
3818;DHT22;1924;48.078;11.516;2023-09-12T04:38:55;18.70;99.90
3818;DHT22;1924;48.078;11.516;2023-09-12T04:41:22;18.80;99.90
3818;DHT22;1924;48.078;11.516;2023-09-12T04:43:48;18.70;99.90
3818;DHT22;1924;48.078;11.516;2023-09-12T04:46:15;18.70;99.90
3818;DHT22;1924;48.078;11.516;2023-09-12T04:48:42;18.70;99.90
3818;DHT22;1924;48.078;11.516;2023-09-12T04:51:09;18.70;99.90
3818;DHT22;1924;48.078;11.516;2023-09-12T04:53:37;18.60;99.90
3818;DHT22;1924;48.078;11.516;2023-09-12T04:56:05;18.60;99.90
3818;DHT22;1924;48.078;11.516;2023-09-12T04:58:35;18.50;99.90
3818;DHT22;1924;48.078;11.516;2023-09-12T05:01:02;18.50;99.90
3818;DHT22;1924;48.078;11.516;2023-09-12T05:03:28;18.50;99.90
3818;DHT22;1924;48.078;11.516;2023-09-12T05:05:55;18.50;99.90
3818;DHT22;1924;48.078;11.516;2023-09-12T05:08:23;18.50;99.90
3818;DHT22;1924;48.078;11.516;2023-09-12T05:10:51;18.50;99.90
3818;DHT22;1924;48.078;11.516;2023-09-12T05:13:18;18.60;99.90
3818;DHT22;1924;48.078;11.516;2023-09-12T05:15:45;18.60;99.90
3818;DHT22;1924;48.078;11.516;2023-09-12T05:18:13;18.60;99.90
3818;DHT22;1924;48.078;11.516;2023-09-12T05:20:39;18.60;99.90
3818;DHT22;1924;48.078;11.516;2023-09-12T05:23:06;18.60;99.90
3818;DHT22;1924;48.078;11.516;2023-09-12T05:25:33;18.70;99.90
3818;DHT22;1924;48.078;11.516;2023-09-12T05:28:01;18.70;99.90
3818;DHT22;1924;48.078;11.516;2023-09-12T05:30:28;18.70;99.90
3818;DHT22;1924;48.078;11.516;2023-09-12T05:32:55;18.70;99.90
3818;DHT22;1924;48.078;11.516;2023-09-12T05:35:22;18.70;99.90
3818;DHT22;1924;48.078;11.516;2023-09-12T05:37:49;18.80;99.90
3818;DHT22;1924;48.078;11.516;2023-09-12T05:40:16;18.80;99.90
3818;DHT22;1924;48.078;11.516;2023-09-12T05:42:43;18.90;99.90
3818;DHT22;1924;48.078;11.516;2023-09-12T05:45:11;18.90;99.90
3818;DHT22;1924;48.078;11.516;2023-09-12T05:47:38;18.90;99.90
3818;DHT22;1924;48.078;11.516;2023-09-12T05:50:05;18.90;99.90
3818;DHT22;1924;48.078;11.516;2023-09-12T05:52:32;18.90;99.90
3818;DHT22;1924;48.078;11.516;2023-09-12T05:54:59;19.00;99.90
3818;DHT22;1924;48.078;11.516;2023-09-12T05:57:26;19.10;99.90
3818;DHT22;1924;48.078;11.516;2023-09-12T05:59:53;19.10;99.90
3818;DHT22;1924;48.078;11.516;2023-09-12T06:02:21;19.20;99.90
3818;DHT22;1924;48.078;11.516;2023-09-12T06:04:47;19.30;99.90
3818;DHT22;1924;48.078;11.516;2023-09-12T06:07:14;19.80;99.90
3818;DHT22;1924;48.078;11.516;2023-09-12T06:09:41;20.70;99.90
3818;DHT22;1924;48.078;11.516;2023-09-12T06:12:08;21.70;99.90
3818;DHT22;1924;48.078;11.516;2023-09-12T06:14:35;22.50;99.90
3818;DHT22;1924;48.078;11.516;2023-09-12T06:17:01;22.80;99.90
3818;DHT22;1924;48.078;11.516;2023-09-12T06:19:29;22.90;99.90
3818;DHT22;1924;48.078;11.516;2023-09-12T06:21:56;22.80;99.90
3818;DHT22;1924;48.078;11.516;2023-09-12T06:24:24;22.60;99.90
3818;DHT22;1924;48.078;11.516;2023-09-12T06:26:51;22.50;99.90
3818;DHT22;1924;48.078;11.516;2023-09-12T06:29:20;22.50;99.90
3818;DHT22;1924;48.078;11.516;2023-09-12T06:31:47;22.60;99.90
3818;DHT22;1924;48.078;11.516;2023-09-12T06:34:14;22.70;99.90
3818;DHT22;1924;48.078;11.516;2023-09-12T06:36:42;22.70;99.90
3818;DHT22;1924;48.078;11.516;2023-09-12T06:39:10;22.70;99.90
3818;DHT22;1924;48.078;11.516;2023-09-12T06:41:37;22.70;99.90
3818;DHT22;1924;48.078;11.516;2023-09-12T06:44:04;22.60;99.90
3818;DHT22;1924;48.078;11.516;2023-09-12T06:46:32;22.80;99.90
3818;DHT22;1924;48.078;11.516;2023-09-12T06:49:01;23.10;99.90
3818;DHT22;1924;48.078;11.516;2023-09-12T06:51:28;23.20;99.90
3818;DHT22;1924;48.078;11.516;2023-09-12T06:53:56;23.30;99.90
3818;DHT22;1924;48.078;11.516;2023-09-12T06:56:23;23.30;99.90
3818;DHT22;1924;48.078;11.516;2023-09-12T06:58:49;23.30;99.80
3818;DHT22;1924;48.078;11.516;2023-09-12T07:01:18;23.40;99.90
3818;DHT22;1924;48.078;11.516;2023-09-12T07:03:45;23.80;99.90
3818;DHT22;1924;48.078;11.516;2023-09-12T07:06:12;24.30;99.50
3818;DHT22;1924;48.078;11.516;2023-09-12T07:08:39;24.60;98.60
3818;DHT22;1924;48.078;11.516;2023-09-12T07:11:07;24.50;99.00
3818;DHT22;1924;48.078;11.516;2023-09-12T07:13:34;24.40;98.80
3818;DHT22;1924;48.078;11.516;2023-09-12T07:16:01;24.20;99.50
3818;DHT22;1924;48.078;11.516;2023-09-12T07:18:30;23.90;99.90
3818;DHT22;1924;48.078;11.516;2023-09-12T07:20:59;23.60;99.90
3818;DHT22;1924;48.078;11.516;2023-09-12T07:23:26;23.50;99.90
3818;DHT22;1924;48.078;11.516;2023-09-12T07:25:54;23.40;99.90
3818;DHT22;1924;48.078;11.516;2023-09-12T07:28:24;23.30;99.90
3818;DHT22;1924;48.078;11.516;2023-09-12T07:30:51;23.30;99.90
3818;DHT22;1924;48.078;11.516;2023-09-12T07:33:18;23.40;99.90
3818;DHT22;1924;48.078;11.516;2023-09-12T07:35:45;23.30;99.90
3818;DHT22;1924;48.078;11.516;2023-09-12T07:38:13;23.30;99.90
3818;DHT22;1924;48.078;11.516;2023-09-12T07:40:41;23.30;99.90
3818;DHT22;1924;48.078;11.516;2023-09-12T07:43:07;23.40;99.90
3818;DHT22;1924;48.078;11.516;2023-09-12T07:45:36;23.40;99.90
3818;DHT22;1924;48.078;11.516;2023-09-12T07:48:05;23.50;99.90
3818;DHT22;1924;48.078;11.516;2023-09-12T07:50:32;23.60;99.90
3818;DHT22;1924;48.078;11.516;2023-09-12T07:52:59;23.60;99.90
3818;DHT22;1924;48.078;11.516;2023-09-12T07:55:26;23.50;99.90
3818;DHT22;1924;48.078;11.516;2023-09-12T07:57:56;23.50;99.90
3818;DHT22;1924;48.078;11.516;2023-09-12T08:00:23;23.50;99.90
3818;DHT22;1924;48.078;11.516;2023-09-12T08:02:52;23.50;99.90
3818;DHT22;1924;48.078;11.516;2023-09-12T08:05:19;23.50;99.90
3818;DHT22;1924;48.078;11.516;2023-09-12T08:07:45;23.60;99.90
3818;DHT22;1924;48.078;11.516;2023-09-12T08:10:12;23.70;99.90
3818;DHT22;1924;48.078;11.516;2023-09-12T08:12:39;23.70;99.90
3818;DHT22;1924;48.078;11.516;2023-09-12T08:15:08;23.80;99.90
3818;DHT22;1924;48.078;11.516;2023-09-12T08:17:35;23.80;99.90
3818;DHT22;1924;48.078;11.516;2023-09-12T08:20:06;23.80;99.90
3818;DHT22;1924;48.078;11.516;2023-09-12T08:22:35;23.80;99.90
3818;DHT22;1924;48.078;11.516;2023-09-12T08:25:05;23.80;99.90
3818;DHT22;1924;48.078;11.516;2023-09-12T08:27:33;23.80;99.90
3818;DHT22;1924;48.078;11.516;2023-09-12T08:29:59;23.90;99.90
3818;DHT22;1924;48.078;11.516;2023-09-12T08:32:30;23.90;99.90
3818;DHT22;1924;48.078;11.516;2023-09-12T08:34:57;24.00;99.90
3818;DHT22;1924;48.078;11.516;2023-09-12T08:37:26;24.00;99.90
3818;DHT22;1924;48.078;11.516;2023-09-12T08:39:55;24.10;99.90
3818;DHT22;1924;48.078;11.516;2023-09-12T08:42:26;24.00;99.90
3818;DHT22;1924;48.078;11.516;2023-09-12T08:44:54;24.00;99.90
3818;DHT22;1924;48.078;11.516;2023-09-12T08:47:23;24.00;99.90
3818;DHT22;1924;48.078;11.516;2023-09-12T08:49:50;24.10;99.90
3818;DHT22;1924;48.078;11.516;2023-09-12T08:52:19;24.30;99.90
3818;DHT22;1924;48.078;11.516;2023-09-12T08:54:47;24.30;99.90
3818;DHT22;1924;48.078;11.516;2023-09-12T08:57:14;24.30;99.90
3818;DHT22;1924;48.078;11.516;2023-09-12T08:59:43;24.30;99.90
3818;DHT22;1924;48.078;11.516;2023-09-12T09:02:13;24.30;99.90
3818;DHT22;1924;48.078;11.516;2023-09-12T09:04:41;24.30;99.50
3818;DHT22;1924;48.078;11.516;2023-09-12T09:07:11;24.30;99.90
3818;DHT22;1924;48.078;11.516;2023-09-12T09:09:40;24.40;99.80
3818;DHT22;1924;48.078;11.516;2023-09-12T09:12:11;24.40;99.50
3818;DHT22;1924;48.078;11.516;2023-09-12T09:14:37;24.40;99.70
3818;DHT22;1924;48.078;11.516;2023-09-12T09:17:10;24.40;99.40
3818;DHT22;1924;48.078;11.516;2023-09-12T09:19:43;24.40;98.90
3818;DHT22;1924;48.078;11.516;2023-09-12T09:22:10;24.50;99.50
3818;DHT22;1924;48.078;11.516;2023-09-12T09:24:37;24.50;99.50
3818;DHT22;1924;48.078;11.516;2023-09-12T09:27:04;24.50;99.60
3818;DHT22;1924;48.078;11.516;2023-09-12T09:29:46;24.60;99.80
3818;DHT22;1924;48.078;11.516;2023-09-12T09:32:18;24.60;99.50
3818;DHT22;1924;48.078;11.516;2023-09-12T09:34:48;24.60;97.10
3818;DHT22;1924;48.078;11.516;2023-09-12T09:37:15;24.80;97.20
3818;DHT22;1924;48.078;11.516;2023-09-12T09:39:45;24.80;96.40
3818;DHT22;1924;48.078;11.516;2023-09-12T09:42:17;24.90;96.40
3818;DHT22;1924;48.078;11.516;2023-09-12T09:44:49;25.10;94.70
3818;DHT22;1924;48.078;11.516;2023-09-12T09:47:18;25.20;95.60
3818;DHT22;1924;48.078;11.516;2023-09-12T09:49:45;25.20;96.80
3818;DHT22;1924;48.078;11.516;2023-09-12T09:52:13;25.20;97.20
3818;DHT22;1924;48.078;11.516;2023-09-12T09:54:43;25.20;95.40
3818;DHT22;1924;48.078;11.516;2023-09-12T09:57:10;25.20;96.30
3818;DHT22;1924;48.078;11.516;2023-09-12T09:59:37;25.20;96.10
3818;DHT22;1924;48.078;11.516;2023-09-12T10:02:06;25.30;95.20
3818;DHT22;1924;48.078;11.516;2023-09-12T10:04:38;25.30;97.60
3818;DHT22;1924;48.078;11.516;2023-09-12T10:07:07;25.30;96.50
3818;DHT22;1924;48.078;11.516;2023-09-12T10:09:34;25.40;96.90
3818;DHT22;1924;48.078;11.516;2023-09-12T10:12:02;25.40;96.60
3818;DHT22;1924;48.078;11.516;2023-09-12T10:14:29;25.50;98.10
3818;DHT22;1924;48.078;11.516;2023-09-12T10:17:00;25.70;98.50
3818;DHT22;1924;48.078;11.516;2023-09-12T10:19:34;25.80;97.80
3818;DHT22;1924;48.078;11.516;2023-09-12T10:22:06;26.00;97.30
3818;DHT22;1924;48.078;11.516;2023-09-12T10:24:36;26.10;98.40
3818;DHT22;1924;48.078;11.516;2023-09-12T10:27:05;26.20;98.50
3818;DHT22;1924;48.078;11.516;2023-09-12T10:29:32;26.10;96.60
3818;DHT22;1924;48.078;11.516;2023-09-12T10:32:00;26.30;98.70
3818;DHT22;1924;48.078;11.516;2023-09-12T10:34:29;26.30;95.60
3818;DHT22;1924;48.078;11.516;2023-09-12T10:36:58;26.40;95.80
3818;DHT22;1924;48.078;11.516;2023-09-12T10:39:27;26.50;97.70
3818;DHT22;1924;48.078;11.516;2023-09-12T10:41:54;26.50;96.30
3818;DHT22;1924;48.078;11.516;2023-09-12T10:44:21;26.50;93.90
3818;DHT22;1924;48.078;11.516;2023-09-12T10:46:50;26.50;95.50
3818;DHT22;1924;48.078;11.516;2023-09-12T10:49:18;26.50;95.20
3818;DHT22;1924;48.078;11.516;2023-09-12T10:51:47;26.60;95.60
3818;DHT22;1924;48.078;11.516;2023-09-12T10:54:15;26.60;91.30
3818;DHT22;1924;48.078;11.516;2023-09-12T10:56:42;26.80;91.50
3818;DHT22;1924;48.078;11.516;2023-09-12T10:59:11;27.10;93.80
3818;DHT22;1924;48.078;11.516;2023-09-12T11:01:39;27.30;93.90
3818;DHT22;1924;48.078;11.516;2023-09-12T11:04:30;27.20;90.70
3818;DHT22;1924;48.078;11.516;2023-09-12T11:07:00;27.30;90.50
3818;DHT22;1924;48.078;11.516;2023-09-12T11:09:27;27.30;92.20
3818;DHT22;1924;48.078;11.516;2023-09-12T11:11:58;27.40;92.50
3818;DHT22;1924;48.078;11.516;2023-09-12T11:14:25;27.40;91.60
3818;DHT22;1924;48.078;11.516;2023-09-12T11:17:20;27.40;92.30
3818;DHT22;1924;48.078;11.516;2023-09-12T11:19:48;27.40;92.20
3818;DHT22;1924;48.078;11.516;2023-09-12T11:22:24;27.00;83.20
3818;DHT22;1924;48.078;11.516;2023-09-12T11:24:51;26.90;86.70
3818;DHT22;1924;48.078;11.516;2023-09-12T11:27:18;26.70;85.50
3818;DHT22;1924;48.078;11.516;2023-09-12T11:29:45;26.70;86.70
3818;DHT22;1924;48.078;11.516;2023-09-12T11:32:25;26.70;91.80
3818;DHT22;1924;48.078;11.516;2023-09-12T11:34:52;26.90;92.40
3818;DHT22;1924;48.078;11.516;2023-09-12T11:37:27;27.00;92.30
3818;DHT22;1924;48.078;11.516;2023-09-12T11:39:55;27.00;91.50
3818;DHT22;1924;48.078;11.516;2023-09-12T11:42:24;27.10;91.60
3818;DHT22;1924;48.078;11.516;2023-09-12T11:44:52;27.00;91.60
3818;DHT22;1924;48.078;11.516;2023-09-12T11:47:19;27.00;92.50
3818;DHT22;1924;48.078;11.516;2023-09-12T11:49:46;26.90;92.70
3818;DHT22;1924;48.078;11.516;2023-09-12T11:52:14;26.70;91.30
3818;DHT22;1924;48.078;11.516;2023-09-12T11:54:43;26.80;96.00
3818;DHT22;1924;48.078;11.516;2023-09-12T11:57:12;26.70;88.00
3818;DHT22;1924;48.078;11.516;2023-09-12T11:59:40;26.90;87.40
3818;DHT22;1924;48.078;11.516;2023-09-12T12:02:09;27.30;91.70
3818;DHT22;1924;48.078;11.516;2023-09-12T12:04:36;27.40;84.00
3818;DHT22;1924;48.078;11.516;2023-09-12T12:07:04;27.50;89.70
3818;DHT22;1924;48.078;11.516;2023-09-12T12:09:31;27.60;85.50
3818;DHT22;1924;48.078;11.516;2023-09-12T12:12:08;27.80;83.10
3818;DHT22;1924;48.078;11.516;2023-09-12T12:14:35;28.00;86.80
3818;DHT22;1924;48.078;11.516;2023-09-12T12:17:06;28.20;91.40
3818;DHT22;1924;48.078;11.516;2023-09-12T12:19:33;28.10;91.50
3818;DHT22;1924;48.078;11.516;2023-09-12T12:22:02;28.20;92.00
3818;DHT22;1924;48.078;11.516;2023-09-12T12:24:36;28.40;90.20
3818;DHT22;1924;48.078;11.516;2023-09-12T12:27:05;28.50;84.30
3818;DHT22;1924;48.078;11.516;2023-09-12T12:29:33;28.30;80.60
3818;DHT22;1924;48.078;11.516;2023-09-12T12:32:00;28.40;86.20
3818;DHT22;1924;48.078;11.516;2023-09-12T12:34:27;28.70;87.80
3818;DHT22;1924;48.078;11.516;2023-09-12T12:36:54;29.00;90.20
3818;DHT22;1924;48.078;11.516;2023-09-12T12:39:21;29.20;89.10
3818;DHT22;1924;48.078;11.516;2023-09-12T12:41:48;29.30;88.50
3818;DHT22;1924;48.078;11.516;2023-09-12T12:44:16;29.40;85.60
3818;DHT22;1924;48.078;11.516;2023-09-12T12:46:49;29.20;84.40
3818;DHT22;1924;48.078;11.516;2023-09-12T12:49:17;29.30;86.60
3818;DHT22;1924;48.078;11.516;2023-09-12T12:51:44;29.40;85.90
3818;DHT22;1924;48.078;11.516;2023-09-12T12:54:11;29.50;85.10
3818;DHT22;1924;48.078;11.516;2023-09-12T12:56:38;29.40;75.80
3818;DHT22;1924;48.078;11.516;2023-09-12T12:59:07;29.10;79.70
3818;DHT22;1924;48.078;11.516;2023-09-12T13:01:36;29.20;80.10
3818;DHT22;1924;48.078;11.516;2023-09-12T13:04:05;29.30;82.10
3818;DHT22;1924;48.078;11.516;2023-09-12T13:06:32;28.80;75.70
3818;DHT22;1924;48.078;11.516;2023-09-12T13:09:02;28.80;73.30
3818;DHT22;1924;48.078;11.516;2023-09-12T13:11:31;28.70;73.90
3818;DHT22;1924;48.078;11.516;2023-09-12T13:14:00;28.60;73.00
3818;DHT22;1924;48.078;11.516;2023-09-12T13:16:27;28.80;77.80
3818;DHT22;1924;48.078;11.516;2023-09-12T13:18:55;28.90;76.10
3818;DHT22;1924;48.078;11.516;2023-09-12T13:21:22;28.80;72.90
3818;DHT22;1924;48.078;11.516;2023-09-12T13:23:49;28.60;70.10
3818;DHT22;1924;48.078;11.516;2023-09-12T13:26:15;28.20;70.60
3818;DHT22;1924;48.078;11.516;2023-09-12T13:28:42;28.30;72.90
3818;DHT22;1924;48.078;11.516;2023-09-12T13:31:09;28.20;70.10
3818;DHT22;1924;48.078;11.516;2023-09-12T13:33:37;28.30;72.10
3818;DHT22;1924;48.078;11.516;2023-09-12T13:36:05;28.50;69.90
3818;DHT22;1924;48.078;11.516;2023-09-12T13:38:32;28.40;69.10
3818;DHT22;1924;48.078;11.516;2023-09-12T13:40:59;28.30;68.60
3818;DHT22;1924;48.078;11.516;2023-09-12T13:43:25;28.40;70.20
3818;DHT22;1924;48.078;11.516;2023-09-12T13:45:53;28.30;69.50
3818;DHT22;1924;48.078;11.516;2023-09-12T13:48:20;28.30;73.90
3818;DHT22;1924;48.078;11.516;2023-09-12T13:50:47;28.30;69.70
3818;DHT22;1924;48.078;11.516;2023-09-12T13:53:15;28.30;72.30
3818;DHT22;1924;48.078;11.516;2023-09-12T13:55:41;28.30;73.70
3818;DHT22;1924;48.078;11.516;2023-09-12T13:58:08;28.20;73.30
3818;DHT22;1924;48.078;11.516;2023-09-12T14:00:35;28.20;75.10
3818;DHT22;1924;48.078;11.516;2023-09-12T14:03:02;28.10;77.50
3818;DHT22;1924;48.078;11.516;2023-09-12T14:05:29;28.10;71.00
3818;DHT22;1924;48.078;11.516;2023-09-12T14:07:56;28.00;73.70
3818;DHT22;1924;48.078;11.516;2023-09-12T14:10:24;27.80;70.30
3818;DHT22;1924;48.078;11.516;2023-09-12T14:12:50;27.70;71.60
3818;DHT22;1924;48.078;11.516;2023-09-12T14:15:17;27.70;72.70
3818;DHT22;1924;48.078;11.516;2023-09-12T14:17:44;27.60;72.50
3818;DHT22;1924;48.078;11.516;2023-09-12T14:20:11;27.60;70.00
3818;DHT22;1924;48.078;11.516;2023-09-12T14:22:41;27.60;69.20
3818;DHT22;1924;48.078;11.516;2023-09-12T14:25:08;27.50;69.50
3818;DHT22;1924;48.078;11.516;2023-09-12T14:27:41;27.50;71.40
3818;DHT22;1924;48.078;11.516;2023-09-12T14:30:09;27.50;70.00
3818;DHT22;1924;48.078;11.516;2023-09-12T14:32:36;27.50;71.00
3818;DHT22;1924;48.078;11.516;2023-09-12T14:35:04;27.50;70.00
3818;DHT22;1924;48.078;11.516;2023-09-12T14:37:31;27.50;69.80
3818;DHT22;1924;48.078;11.516;2023-09-12T14:39:58;27.50;70.30
3818;DHT22;1924;48.078;11.516;2023-09-12T14:42:24;27.50;67.40
3818;DHT22;1924;48.078;11.516;2023-09-12T14:44:52;27.50;65.80
3818;DHT22;1924;48.078;11.516;2023-09-12T14:47:19;27.40;65.90
3818;DHT22;1924;48.078;11.516;2023-09-12T14:49:46;27.40;67.40
3818;DHT22;1924;48.078;11.516;2023-09-12T14:52:13;27.50;68.40
3818;DHT22;1924;48.078;11.516;2023-09-12T14:54:39;27.50;69.70
3818;DHT22;1924;48.078;11.516;2023-09-12T14:57:06;27.40;69.30
3818;DHT22;1924;48.078;11.516;2023-09-12T14:59:33;27.40;70.50
3818;DHT22;1924;48.078;11.516;2023-09-12T15:02:01;27.30;69.40
3818;DHT22;1924;48.078;11.516;2023-09-12T15:04:27;27.20;71.20
3818;DHT22;1924;48.078;11.516;2023-09-12T15:06:54;27.20;71.30
3818;DHT22;1924;48.078;11.516;2023-09-12T15:09:21;27.10;71.50
3818;DHT22;1924;48.078;11.516;2023-09-12T15:11:47;27.10;71.40
3818;DHT22;1924;48.078;11.516;2023-09-12T15:14:15;27.00;70.90
3818;DHT22;1924;48.078;11.516;2023-09-12T15:16:42;27.00;70.90
3818;DHT22;1924;48.078;11.516;2023-09-12T15:19:10;26.90;71.00
3818;DHT22;1924;48.078;11.516;2023-09-12T15:21:37;26.90;71.50
3818;DHT22;1924;48.078;11.516;2023-09-12T15:24:04;26.80;70.60
3818;DHT22;1924;48.078;11.516;2023-09-12T15:26:31;26.80;69.70
3818;DHT22;1924;48.078;11.516;2023-09-12T15:28:57;26.80;67.30
3818;DHT22;1924;48.078;11.516;2023-09-12T15:31:26;26.90;68.10
3818;DHT22;1924;48.078;11.516;2023-09-12T15:33:53;26.90;68.50
3818;DHT22;1924;48.078;11.516;2023-09-12T15:36:23;26.90;69.00
3818;DHT22;1924;48.078;11.516;2023-09-12T15:38:49;26.80;69.20
3818;DHT22;1924;48.078;11.516;2023-09-12T15:41:17;26.80;66.80
3818;DHT22;1924;48.078;11.516;2023-09-12T15:43:44;26.90;66.50
3818;DHT22;1924;48.078;11.516;2023-09-12T15:46:11;26.90;65.20
3818;DHT22;1924;48.078;11.516;2023-09-12T15:48:38;26.90;70.80
3818;DHT22;1924;48.078;11.516;2023-09-12T15:51:04;26.90;74.00
3818;DHT22;1924;48.078;11.516;2023-09-12T15:53:32;26.80;78.00
3818;DHT22;1924;48.078;11.516;2023-09-12T15:55:59;26.80;79.70
3818;DHT22;1924;48.078;11.516;2023-09-12T15:58:26;26.70;81.00
3818;DHT22;1924;48.078;11.516;2023-09-12T16:00:54;26.70;82.00
3818;DHT22;1924;48.078;11.516;2023-09-12T16:03:23;26.60;82.50
3818;DHT22;1924;48.078;11.516;2023-09-12T16:05:50;26.60;83.10
3818;DHT22;1924;48.078;11.516;2023-09-12T16:08:17;26.60;83.90
3818;DHT22;1924;48.078;11.516;2023-09-12T16:10:45;26.50;84.70
3818;DHT22;1924;48.078;11.516;2023-09-12T16:13:12;26.40;85.40
3818;DHT22;1924;48.078;11.516;2023-09-12T16:15:39;26.30;86.30
3818;DHT22;1924;48.078;11.516;2023-09-12T16:18:06;26.30;86.60
3818;DHT22;1924;48.078;11.516;2023-09-12T16:20:33;26.20;87.10
3818;DHT22;1924;48.078;11.516;2023-09-12T16:23:00;26.20;87.30
3818;DHT22;1924;48.078;11.516;2023-09-12T16:25:27;26.10;87.60
3818;DHT22;1924;48.078;11.516;2023-09-12T16:27:55;26.10;87.80
3818;DHT22;1924;48.078;11.516;2023-09-12T16:30:21;26.10;88.80
3818;DHT22;1924;48.078;11.516;2023-09-12T16:32:48;26.00;88.30
3818;DHT22;1924;48.078;11.516;2023-09-12T16:35:15;26.00;88.90
3818;DHT22;1924;48.078;11.516;2023-09-12T16:37:42;26.10;90.10
3818;DHT22;1924;48.078;11.516;2023-09-12T16:40:09;26.00;89.50
3818;DHT22;1924;48.078;11.516;2023-09-12T16:42:35;25.90;89.90
3818;DHT22;1924;48.078;11.516;2023-09-12T16:45:05;25.90;89.60
3818;DHT22;1924;48.078;11.516;2023-09-12T16:47:32;25.90;90.10
3818;DHT22;1924;48.078;11.516;2023-09-12T16:49:59;25.80;90.30
3818;DHT22;1924;48.078;11.516;2023-09-12T16:52:25;25.70;90.30
3818;DHT22;1924;48.078;11.516;2023-09-12T16:54:52;25.70;91.00
3818;DHT22;1924;48.078;11.516;2023-09-12T16:57:19;25.70;91.50
3818;DHT22;1924;48.078;11.516;2023-09-12T16:59:46;25.60;91.80
3818;DHT22;1924;48.078;11.516;2023-09-12T17:02:15;25.50;92.30
3818;DHT22;1924;48.078;11.516;2023-09-12T17:04:41;25.40;92.20
3818;DHT22;1924;48.078;11.516;2023-09-12T17:07:08;25.40;92.50
3818;DHT22;1924;48.078;11.516;2023-09-12T17:09:36;25.30;93.10
3818;DHT22;1924;48.078;11.516;2023-09-12T17:12:03;25.20;93.20
3818;DHT22;1924;48.078;11.516;2023-09-12T17:14:30;25.20;93.70
3818;DHT22;1924;48.078;11.516;2023-09-12T17:16:56;25.10;94.00
3818;DHT22;1924;48.078;11.516;2023-09-12T17:19:24;25.00;94.00
3818;DHT22;1924;48.078;11.516;2023-09-12T17:21:51;24.90;94.80
3818;DHT22;1924;48.078;11.516;2023-09-12T17:24:18;24.80;95.00
3818;DHT22;1924;48.078;11.516;2023-09-12T17:26:45;24.80;95.10
3818;DHT22;1924;48.078;11.516;2023-09-12T17:29:11;24.70;95.10
3818;DHT22;1924;48.078;11.516;2023-09-12T17:31:38;24.70;95.60
3818;DHT22;1924;48.078;11.516;2023-09-12T17:34:05;24.60;96.00
3818;DHT22;1924;48.078;11.516;2023-09-12T17:36:34;24.50;96.40
3818;DHT22;1924;48.078;11.516;2023-09-12T17:39:02;24.50;96.60
3818;DHT22;1924;48.078;11.516;2023-09-12T17:41:28;24.50;96.70
3818;DHT22;1924;48.078;11.516;2023-09-12T17:43:55;24.40;97.00
3818;DHT22;1924;48.078;11.516;2023-09-12T17:46:23;24.40;97.10
3818;DHT22;1924;48.078;11.516;2023-09-12T17:48:49;24.40;97.20
3818;DHT22;1924;48.078;11.516;2023-09-12T17:51:16;24.40;97.20
3818;DHT22;1924;48.078;11.516;2023-09-12T17:53:45;24.30;96.90
3818;DHT22;1924;48.078;11.516;2023-09-12T17:56:12;24.30;97.00
3818;DHT22;1924;48.078;11.516;2023-09-12T17:58:40;24.30;97.10
3818;DHT22;1924;48.078;11.516;2023-09-12T18:01:08;24.30;97.20
3818;DHT22;1924;48.078;11.516;2023-09-12T18:03:35;24.20;97.40
3818;DHT22;1924;48.078;11.516;2023-09-12T18:06:02;24.20;97.20
3818;DHT22;1924;48.078;11.516;2023-09-12T18:08:29;24.20;97.40
3818;DHT22;1924;48.078;11.516;2023-09-12T18:10:58;24.20;97.50
3818;DHT22;1924;48.078;11.516;2023-09-12T18:13:24;24.20;97.60
3818;DHT22;1924;48.078;11.516;2023-09-12T18:15:51;24.20;97.70
3818;DHT22;1924;48.078;11.516;2023-09-12T18:18:18;24.10;98.00
3818;DHT22;1924;48.078;11.516;2023-09-12T18:20:45;24.10;97.70
3818;DHT22;1924;48.078;11.516;2023-09-12T18:23:11;24.10;97.70
3818;DHT22;1924;48.078;11.516;2023-09-12T18:25:38;24.10;97.60
3818;DHT22;1924;48.078;11.516;2023-09-12T18:28:06;24.10;97.40
3818;DHT22;1924;48.078;11.516;2023-09-12T18:30:36;24.10;97.00
3818;DHT22;1924;48.078;11.516;2023-09-12T18:33:03;24.10;96.30
3818;DHT22;1924;48.078;11.516;2023-09-12T18:35:30;24.10;95.70
3818;DHT22;1924;48.078;11.516;2023-09-12T18:37:57;24.10;95.10
3818;DHT22;1924;48.078;11.516;2023-09-12T18:40:26;24.10;94.90
3818;DHT22;1924;48.078;11.516;2023-09-12T18:42:54;24.10;95.00
3818;DHT22;1924;48.078;11.516;2023-09-12T18:45:22;24.00;94.90
3818;DHT22;1924;48.078;11.516;2023-09-12T18:47:49;24.00;95.10
3818;DHT22;1924;48.078;11.516;2023-09-12T18:50:16;24.00;95.20
3818;DHT22;1924;48.078;11.516;2023-09-12T18:52:42;23.90;95.90
3818;DHT22;1924;48.078;11.516;2023-09-12T18:55:09;23.90;96.10
3818;DHT22;1924;48.078;11.516;2023-09-12T18:57:36;23.80;96.70
3818;DHT22;1924;48.078;11.516;2023-09-12T19:00:04;23.60;97.50
3818;DHT22;1924;48.078;11.516;2023-09-12T19:02:32;23.50;97.90
3818;DHT22;1924;48.078;11.516;2023-09-12T19:04:59;23.50;98.20
3818;DHT22;1924;48.078;11.516;2023-09-12T19:07:28;23.30;98.30
3818;DHT22;1924;48.078;11.516;2023-09-12T19:09:55;23.20;99.10
3818;DHT22;1924;48.078;11.516;2023-09-12T19:12:22;23.10;99.50
3818;DHT22;1924;48.078;11.516;2023-09-12T19:14:49;23.10;99.90
3818;DHT22;1924;48.078;11.516;2023-09-12T19:17:16;23.00;99.50
3818;DHT22;1924;48.078;11.516;2023-09-12T19:19:44;22.90;99.90
3818;DHT22;1924;48.078;11.516;2023-09-12T19:22:11;22.90;99.90
3818;DHT22;1924;48.078;11.516;2023-09-12T19:24:38;22.80;99.90
3818;DHT22;1924;48.078;11.516;2023-09-12T19:27:05;22.70;99.90
3818;DHT22;1924;48.078;11.516;2023-09-12T19:29:46;22.70;99.90
3818;DHT22;1924;48.078;11.516;2023-09-12T19:32:13;22.60;99.90
3818;DHT22;1924;48.078;11.516;2023-09-12T19:34:40;22.50;99.90
3818;DHT22;1924;48.078;11.516;2023-09-12T19:37:10;22.50;99.90
3818;DHT22;1924;48.078;11.516;2023-09-12T19:39:37;22.50;99.90
3818;DHT22;1924;48.078;11.516;2023-09-12T19:42:04;22.40;99.90
3818;DHT22;1924;48.078;11.516;2023-09-12T19:44:31;22.40;99.90
3818;DHT22;1924;48.078;11.516;2023-09-12T19:46:58;22.30;99.90
3818;DHT22;1924;48.078;11.516;2023-09-12T19:49:25;22.30;99.90